createdAt,value
2018-03-01T00:01:47.751Z,-65
2018-03-01T00:04:14.840Z,-66
2018-03-01T00:06:42.087Z,-65
2018-03-01T00:09:09.134Z,-65
2018-03-01T00:11:36.186Z,-64
2018-03-01T00:14:03.230Z,-65
2018-03-01T00:16:30.282Z,-63
2018-03-01T00:18:57.463Z,-64
2018-03-01T00:21:24.515Z,-64
2018-03-01T00:23:51.566Z,-65
2018-03-01T00:26:18.622Z,-63
2018-03-01T00:28:45.673Z,-64
2018-03-01T00:31:13.119Z,-64
2018-03-01T00:33:40.168Z,-65
2018-03-01T00:36:07.214Z,-64
2018-03-01T00:38:34.270Z,-64
2018-03-01T00:41:01.314Z,-65
2018-03-01T00:43:28.587Z,-65
2018-03-01T00:45:55.640Z,-65
2018-03-01T00:48:22.690Z,-65
2018-03-01T00:50:49.734Z,-65
2018-03-01T00:53:16.838Z,-64
2018-03-01T00:55:44.098Z,-64
2018-03-01T00:58:11.150Z,-63
2018-03-01T01:00:39.170Z,-65
2018-03-01T01:03:06.223Z,-64
2018-03-01T01:05:33.273Z,-65
2018-03-01T01:08:00.369Z,-65
2018-03-01T01:10:27.409Z,-65
2018-03-01T01:12:54.463Z,-64
2018-03-01T01:15:21.507Z,-65
2018-03-01T01:17:48.553Z,-65
2018-03-01T01:20:15.810Z,-64
2018-03-01T01:22:42.858Z,-65
2018-03-01T01:25:09.914Z,-65
2018-03-01T01:27:36.961Z,-64
2018-03-01T01:30:04.015Z,-65
2018-03-01T01:32:31.310Z,-64
2018-03-01T01:34:58.362Z,-64
2018-03-01T01:37:25.414Z,-64
2018-03-01T01:39:52.467Z,-65
2018-03-01T01:42:19.521Z,-64
2018-03-01T01:44:46.710Z,-65
2018-03-01T01:47:13.754Z,-64
2018-03-01T01:49:40.807Z,-65
2018-03-01T01:52:07.869Z,-64
2018-03-01T01:54:34.920Z,-64
2018-03-01T01:57:02.006Z,-65
2018-03-01T01:59:29.055Z,-64
2018-03-01T02:01:56.102Z,-65
2018-03-01T02:04:23.150Z,-64
2018-03-01T02:06:50.194Z,-65
2018-03-01T02:09:17.495Z,-64
2018-03-01T02:11:44.545Z,-65
2018-03-01T02:14:11.590Z,-65
2018-03-01T02:16:38.641Z,-64
2018-03-01T02:19:05.694Z,-65
2018-03-01T02:21:33.017Z,-65
2018-03-01T02:24:00.069Z,-65
2018-03-01T02:26:27.118Z,-65
2018-03-01T02:28:54.175Z,-65
2018-03-01T02:31:21.223Z,-64
2018-03-01T02:33:48.423Z,-64
2018-03-01T02:36:15.474Z,-64
2018-03-01T02:38:42.522Z,-65
2018-03-01T02:41:09.567Z,-64
2018-03-01T02:43:36.614Z,-65
2018-03-01T02:46:03.702Z,-64
2018-03-01T02:48:30.759Z,-65
2018-03-01T02:50:57.812Z,-64
2018-03-01T02:53:24.863Z,-66
2018-03-01T02:55:51.912Z,-64
2018-03-01T02:58:19.118Z,-65
2018-03-01T03:00:46.162Z,-64
2018-03-01T03:03:13.212Z,-63
2018-03-01T03:05:40.258Z,-64
2018-03-01T03:08:07.317Z,-65
2018-03-01T03:10:34.722Z,-65
2018-03-01T03:13:01.770Z,-64
2018-03-01T03:15:28.815Z,-63
2018-03-01T03:17:55.866Z,-64
2018-03-01T03:20:22.913Z,-65
2018-03-01T03:22:50.438Z,-64
2018-03-01T03:25:17.482Z,-64
2018-03-01T03:27:44.532Z,-63
2018-03-01T03:30:11.589Z,-63
2018-03-01T03:32:38.634Z,-64
2018-03-01T03:35:05.722Z,-65
2018-03-01T03:37:32.771Z,-65
2018-03-01T03:39:59.819Z,-67
2018-03-01T03:42:26.873Z,-65
2018-03-01T03:44:53.918Z,-65
2018-03-01T03:47:21.238Z,-64
2018-03-01T03:49:48.286Z,-65
2018-03-01T03:52:15.439Z,-65
2018-03-01T03:54:42.486Z,-64
2018-03-01T03:57:09.535Z,-65
2018-03-01T03:59:36.608Z,-65
2018-03-01T04:02:03.656Z,-65
2018-03-01T04:04:30.704Z,-65
2018-03-01T04:06:57.752Z,-64
2018-03-01T04:09:24.800Z,-64
2018-03-01T04:11:51.992Z,-65
2018-03-01T04:14:19.048Z,-64
2018-03-01T04:16:46.107Z,-67
2018-03-01T04:19:13.158Z,-64
2018-03-01T04:21:40.215Z,-64
2018-03-01T04:24:07.312Z,-64
2018-03-01T04:26:34.358Z,-64
2018-03-01T04:29:01.406Z,-65
2018-03-01T04:31:28.462Z,-65
2018-03-01T04:33:55.513Z,-65
2018-03-01T04:36:22.741Z,-64
2018-03-01T04:38:49.790Z,-63
2018-03-01T04:41:16.831Z,-65
2018-03-01T04:43:43.881Z,-65
2018-03-01T04:46:10.928Z,-64
2018-03-01T04:48:38.129Z,-64
2018-03-01T04:51:05.181Z,-64
2018-03-01T04:53:32.229Z,-63
2018-03-01T04:55:59.282Z,-63
2018-03-01T04:58:26.330Z,-65
2018-03-01T05:00:53.413Z,-64
2018-03-01T05:03:20.463Z,-65
2018-03-01T05:05:47.510Z,-64
2018-03-01T05:08:14.562Z,-66
2018-03-01T05:10:41.610Z,-64
2018-03-01T05:13:08.932Z,-65
2018-03-01T05:15:35.978Z,-64
2018-03-01T05:18:03.026Z,-64
2018-03-01T05:20:30.074Z,-66
2018-03-01T05:22:57.117Z,-66
2018-03-01T05:25:24.334Z,-64
2018-03-01T05:27:51.382Z,-65
2018-03-01T05:30:18.442Z,-65
2018-03-01T05:32:45.487Z,-65
2018-03-01T05:35:12.531Z,-68
2018-03-01T05:37:40.035Z,-68
2018-03-01T05:40:07.083Z,-67
2018-03-01T05:42:34.131Z,-66
2018-03-01T05:45:01.179Z,-68
2018-03-01T05:47:28.226Z,-64
2018-03-01T05:49:55.546Z,-64
2018-03-01T05:52:22.599Z,-66
2018-03-01T05:54:49.647Z,-65
2018-03-01T05:57:16.693Z,-66
2018-03-01T05:59:43.746Z,-68
2018-03-01T06:02:10.826Z,-66
2018-03-01T06:04:37.878Z,-68
2018-03-01T06:07:05.027Z,-63
2018-03-01T06:09:32.086Z,-67
2018-03-01T06:11:59.134Z,-67
2018-03-01T06:14:26.442Z,-66
2018-03-01T06:16:53.499Z,-69
2018-03-01T06:19:20.551Z,-69
2018-03-01T06:21:47.602Z,-70
2018-03-01T06:24:14.655Z,-67
2018-03-01T06:26:41.859Z,-69
2018-03-01T06:29:08.912Z,-69
2018-03-01T06:31:35.962Z,-68
2018-03-01T06:34:03.011Z,-68
2018-03-01T06:36:30.059Z,-68
2018-03-01T06:38:57.306Z,-70
2018-03-01T06:41:24.355Z,-69
2018-03-01T06:43:51.406Z,-68
2018-03-01T06:46:18.450Z,-68
2018-03-01T06:48:45.500Z,-69
2018-03-01T06:51:12.598Z,-69
2018-03-01T06:53:39.660Z,-68
2018-03-01T06:56:06.711Z,-69
2018-03-01T06:58:33.759Z,-68
2018-03-01T07:01:00.806Z,-69
2018-03-01T07:03:27.881Z,-69
2018-03-01T07:05:54.939Z,-68
2018-03-01T07:08:21.992Z,-68
2018-03-01T07:10:49.045Z,-67
2018-03-01T07:13:16.110Z,-68
2018-03-01T07:15:43.274Z,-69
2018-03-01T07:18:10.318Z,-68
2018-03-01T07:20:37.362Z,-67
2018-03-01T07:23:04.418Z,-69
2018-03-01T07:25:31.482Z,-67
2018-03-01T07:27:58.554Z,-68
2018-03-01T07:30:25.611Z,-67
2018-03-01T07:32:52.672Z,-68
2018-03-01T07:35:19.723Z,-69
2018-03-01T07:37:46.774Z,-70
2018-03-01T07:40:14.050Z,-70
2018-03-01T07:42:41.094Z,-67
2018-03-01T07:45:08.148Z,-69
2018-03-01T07:47:35.198Z,-69
2018-03-01T07:50:02.250Z,-67
2018-03-01T07:52:29.383Z,-68
2018-03-01T07:54:56.433Z,-69
2018-03-01T07:57:23.483Z,-69
2018-03-01T07:59:50.534Z,-69
2018-03-01T08:02:17.586Z,-69
2018-03-01T08:04:44.634Z,-69
2018-03-01T08:07:11.686Z,-69
2018-03-01T08:09:38.872Z,-70
2018-03-01T08:12:05.961Z,-69
2018-03-01T08:14:33.006Z,-67
2018-03-01T08:17:00.454Z,-70
2018-03-01T08:19:27.538Z,-70
2018-03-01T08:21:54.591Z,-70
2018-03-01T08:24:21.686Z,-69
2018-03-01T08:26:48.738Z,-68
2018-03-01T08:29:15.795Z,-69
2018-03-01T08:31:42.862Z,-68
2018-03-01T08:34:09.919Z,-69
2018-03-01T08:36:37.408Z,-68
2018-03-01T08:39:04.497Z,-69
2018-03-01T08:41:31.576Z,-68
2018-03-01T08:43:58.630Z,-67
2018-03-01T08:46:25.678Z,-69
2018-03-01T08:48:53.146Z,-68
2018-03-01T08:51:20.190Z,-69
2018-03-01T08:53:47.238Z,-69
2018-03-01T08:56:14.358Z,-67
2018-03-01T08:58:41.505Z,-69
2018-03-01T09:01:08.982Z,-68
2018-03-01T09:03:36.181Z,-67
2018-03-01T09:06:03.822Z,-67
2018-03-01T09:08:30.922Z,-68
2018-03-01T09:10:57.970Z,-67
2018-03-01T09:13:25.278Z,-69
2018-03-01T09:15:52.407Z,-70
2018-03-01T09:18:19.459Z,-69
2018-03-01T09:20:46.512Z,-70
2018-03-01T09:23:13.578Z,-68
2018-03-01T09:25:40.990Z,-69
2018-03-01T09:28:08.392Z,-69
2018-03-01T09:30:35.548Z,-69
2018-03-01T09:33:02.795Z,-69
2018-03-01T09:35:30.635Z,-67
2018-03-01T09:37:57.922Z,-68
2018-03-01T09:40:27.173Z,-69
2018-03-01T09:42:56.597Z,-69
2018-03-01T09:45:26.010Z,-69
2018-03-01T09:47:54.705Z,-69
2018-03-01T09:50:21.972Z,-69
2018-03-01T09:52:49.936Z,-67
2018-03-01T09:55:17.000Z,-69
2018-03-01T09:57:44.059Z,-67
2018-03-01T10:00:11.114Z,-69
2018-03-01T10:02:38.354Z,-67
2018-03-01T10:05:05.412Z,-68
2018-03-01T10:07:32.462Z,-68
2018-03-01T10:09:59.519Z,-69
2018-03-01T10:12:30.004Z,-68
2018-03-01T10:14:57.240Z,-68
2018-03-01T10:17:24.295Z,-68
2018-03-01T10:19:51.346Z,-69
2018-03-01T10:22:18.391Z,-67
2018-03-01T10:24:45.451Z,-69
2018-03-01T10:27:12.834Z,-67
2018-03-01T10:29:45.708Z,-69
2018-03-01T10:32:12.779Z,-68
2018-03-01T10:34:39.835Z,-68
2018-03-01T10:37:06.954Z,-68
2018-03-01T10:39:33.962Z,-68
2018-03-01T10:42:01.013Z,-68
2018-03-01T10:44:28.555Z,-68
2018-03-01T10:46:55.598Z,-68
2018-03-01T10:49:22.654Z,-68
2018-03-01T10:51:49.702Z,-68
2018-03-01T10:54:16.756Z,-69
2018-03-01T10:56:43.839Z,-68
2018-03-01T10:59:10.890Z,-68
2018-03-01T11:01:37.952Z,-68
2018-03-01T11:04:04.999Z,-68
2018-03-01T11:06:32.051Z,-69
2018-03-01T11:08:59.142Z,-68
2018-03-01T11:11:26.191Z,-69
2018-03-01T11:13:53.246Z,-69
2018-03-01T11:16:20.291Z,-68
2018-03-01T11:18:47.341Z,-69
2018-03-01T11:21:14.423Z,-69
2018-03-01T11:23:41.471Z,-68
2018-03-01T11:26:08.518Z,-68
2018-03-01T11:28:35.675Z,-70
2018-03-01T11:31:02.772Z,-70
2018-03-01T11:33:30.165Z,-68
2018-03-01T11:35:57.230Z,-68
2018-03-01T11:38:24.277Z,-69
2018-03-01T11:40:51.324Z,-67
2018-03-01T11:43:18.366Z,-69
2018-03-01T11:45:45.696Z,-68
2018-03-01T11:48:12.743Z,-69
2018-03-01T11:50:39.791Z,-67
2018-03-01T11:53:06.841Z,-68
2018-03-01T11:55:33.895Z,-68
2018-03-01T11:58:01.203Z,-69
2018-03-01T12:00:28.250Z,-67
2018-03-01T12:02:55.299Z,-67
2018-03-01T12:05:22.350Z,-68
2018-03-01T12:07:49.394Z,-69
2018-03-01T12:10:16.823Z,-69
2018-03-01T12:12:43.932Z,-69
2018-03-01T12:15:11.002Z,-68
2018-03-01T12:17:38.054Z,-67
2018-03-01T12:20:05.114Z,-69
2018-03-01T12:22:32.503Z,-70
2018-03-01T12:25:00.005Z,-68
2018-03-01T12:27:27.135Z,-67
2018-03-01T12:29:55.500Z,-67
2018-03-01T12:32:22.569Z,-69
2018-03-01T12:34:49.870Z,-69
2018-03-01T12:37:16.934Z,-69
2018-03-01T12:39:43.978Z,-67
2018-03-01T12:42:11.027Z,-69
2018-03-01T12:44:38.079Z,-67
2018-03-01T12:47:05.541Z,-69
2018-03-01T12:49:32.627Z,-69
2018-03-01T12:51:59.744Z,-68
2018-03-01T12:54:26.799Z,-68
2018-03-01T12:56:53.875Z,-68
2018-03-01T12:59:21.193Z,-68
2018-03-01T13:01:48.242Z,-67
2018-03-01T13:04:16.109Z,-68
2018-03-01T13:06:43.158Z,-68
2018-03-01T13:09:10.207Z,-68
2018-03-01T13:11:37.492Z,-69
2018-03-01T13:14:04.551Z,-69
2018-03-01T13:16:31.606Z,-68
2018-03-01T13:18:58.671Z,-68
2018-03-01T13:21:25.740Z,-69
2018-03-01T13:23:52.825Z,-69
2018-03-01T13:26:19.874Z,-69
2018-03-01T13:28:46.942Z,-69
2018-03-01T13:31:16.562Z,-69
2018-03-01T13:34:02.456Z,-68
2018-03-01T13:36:29.507Z,-68
2018-03-01T13:38:56.558Z,-68
2018-03-01T13:41:25.054Z,-67
2018-03-01T13:43:52.103Z,-68
2018-03-01T13:46:20.971Z,-69
2018-03-01T13:48:48.041Z,-69
2018-03-01T13:51:15.095Z,-69
2018-03-01T13:53:42.227Z,-69
2018-03-01T13:56:09.284Z,-68
2018-03-01T13:58:36.334Z,-69
2018-03-01T14:01:03.381Z,-68
2018-03-01T14:03:30.431Z,-69
2018-03-01T14:05:58.245Z,-68
2018-03-01T14:08:25.306Z,-67
2018-03-01T14:10:52.363Z,-68
2018-03-01T14:13:25.178Z,-68
2018-03-01T14:15:52.241Z,-69
2018-03-01T14:18:34.166Z,-69
2018-03-01T14:21:07.052Z,-68
2018-03-01T14:23:38.078Z,-68
2018-03-01T14:26:10.963Z,-67
2018-03-01T14:28:39.022Z,-68
2018-03-01T14:31:06.086Z,-67
2018-03-01T14:33:33.142Z,-68
2018-03-01T14:36:00.191Z,-67
2018-03-01T14:38:27.250Z,-66
2018-03-01T14:40:54.319Z,-67
2018-03-01T14:43:21.373Z,-67
2018-03-01T14:45:48.439Z,-68
2018-03-01T14:48:15.524Z,-68
2018-03-01T14:50:42.578Z,-68
2018-03-01T14:53:09.635Z,-67
2018-03-01T14:55:36.688Z,-66
2018-03-01T14:58:03.754Z,-68
2018-03-01T15:00:30.806Z,-67
2018-03-01T15:02:59.207Z,-67
2018-03-01T15:05:26.255Z,-68
2018-03-01T15:07:53.302Z,-67
2018-03-01T15:10:20.374Z,-66
2018-03-01T15:12:47.463Z,-66
2018-03-01T15:15:14.516Z,-66
2018-03-01T15:17:41.604Z,-67
2018-03-01T15:20:08.655Z,-68
2018-03-01T15:22:35.706Z,-68
2018-03-01T15:25:02.923Z,-68
2018-03-01T15:27:29.976Z,-67
2018-03-01T15:29:57.031Z,-68
2018-03-01T15:32:24.091Z,-64
2018-03-01T15:34:51.151Z,-65
2018-03-01T15:37:18.239Z,-67
2018-03-01T15:39:45.302Z,-65
2018-03-01T15:42:12.347Z,-68
2018-03-01T15:44:39.394Z,-67
2018-03-01T15:47:06.505Z,-64
2018-03-01T15:49:33.827Z,-68
2018-03-01T15:52:00.886Z,-64
2018-03-01T15:54:27.937Z,-67
2018-03-01T15:56:54.998Z,-67
2018-03-01T15:59:22.052Z,-65
2018-03-01T16:01:49.331Z,-68
2018-03-01T16:04:16.385Z,-64
2018-03-01T16:06:43.434Z,-64
2018-03-01T16:09:10.485Z,-63
2018-03-01T16:11:37.538Z,-68
2018-03-01T16:14:05.038Z,-67
2018-03-01T16:16:32.375Z,-69
2018-03-01T16:18:59.590Z,-69
2018-03-01T16:21:26.766Z,-69
2018-03-01T16:23:53.859Z,-64
2018-03-01T16:26:20.967Z,-67
2018-03-01T16:28:48.082Z,-64
2018-03-01T16:31:15.143Z,-66
2018-03-01T16:33:42.198Z,-66
2018-03-01T16:36:09.443Z,-64
2018-03-01T16:38:36.660Z,-64
2018-03-01T16:41:03.762Z,-64
2018-03-01T16:43:30.814Z,-65
2018-03-01T16:45:58.031Z,-65
2018-03-01T16:48:25.081Z,-65
2018-03-01T16:50:52.463Z,-66
2018-03-01T16:53:19.515Z,-65
2018-03-01T16:55:46.572Z,-65
2018-03-01T16:58:13.645Z,-64
2018-03-01T17:00:40.736Z,-63
2018-03-01T17:03:08.209Z,-64
2018-03-01T17:05:35.317Z,-66
2018-03-01T17:08:02.369Z,-66
2018-03-01T17:10:30.355Z,-65
2018-03-01T17:12:57.400Z,-64
2018-03-01T17:15:24.803Z,-65
2018-03-01T17:17:52.023Z,-65
2018-03-01T17:20:19.113Z,-66
2018-03-01T17:22:47.054Z,-65
2018-03-01T17:25:15.225Z,-66
2018-03-01T17:27:44.964Z,-64
2018-03-01T17:30:13.678Z,-66
2018-03-01T17:32:42.040Z,-65
2018-03-01T17:35:14.128Z,-66
2018-03-01T17:37:42.630Z,-66
2018-03-01T17:40:13.685Z,-64
2018-03-01T17:42:41.560Z,-65
2018-03-01T17:45:09.983Z,-64
2018-03-01T17:47:37.401Z,-64
2018-03-01T17:50:06.011Z,-63
2018-03-01T17:52:33.074Z,-63
2018-03-01T17:55:00.811Z,-63
2018-03-01T17:57:28.059Z,-63
2018-03-01T17:59:55.111Z,-64
2018-03-01T18:02:22.864Z,-63
2018-03-01T18:04:50.114Z,-64
2018-03-01T18:07:19.008Z,-65
2018-03-01T18:09:46.712Z,-65
2018-03-01T18:12:15.607Z,-73
2018-03-01T18:14:44.190Z,-67
2018-03-01T18:17:11.874Z,-65
2018-03-01T18:19:40.674Z,-66
2018-03-01T18:22:10.145Z,-65
2018-03-01T18:24:41.383Z,-66
2018-03-01T18:27:11.782Z,-65
2018-03-01T18:29:41.761Z,-63
2018-03-01T18:32:09.494Z,-63
2018-03-01T18:34:36.652Z,-65
2018-03-01T18:37:04.059Z,-66
2018-03-01T18:39:31.112Z,-65
2018-03-01T18:41:58.192Z,-65
2018-03-01T18:44:25.317Z,-65
2018-03-01T18:46:52.391Z,-62
2018-03-01T18:49:20.861Z,-67
2018-03-01T18:51:48.221Z,-67
2018-03-01T18:54:15.319Z,-67
2018-03-01T18:56:43.150Z,-73
2018-03-01T18:59:12.245Z,-71
2018-03-01T19:01:39.945Z,-70
2018-03-01T19:04:08.552Z,-70
2018-03-01T19:06:35.702Z,-71
2018-03-01T19:09:02.755Z,-72
2018-03-01T19:11:36.905Z,-73
2018-03-01T19:14:04.852Z,-73
2018-03-01T19:16:32.421Z,-71
2018-03-01T19:18:59.697Z,-72
2018-03-01T19:21:26.781Z,-73
2018-03-01T19:23:53.882Z,-71
2018-03-01T19:26:20.896Z,-73
2018-03-01T19:28:48.294Z,-73
2018-03-01T19:31:15.342Z,-71
2018-03-01T19:33:43.036Z,-70
2018-03-01T19:36:10.472Z,-71
2018-03-01T19:38:37.902Z,-68
2018-03-01T19:41:05.027Z,-67
2018-03-01T19:43:32.098Z,-66
2018-03-01T19:45:59.170Z,-66
2018-03-01T19:48:27.044Z,-67
2018-03-01T19:50:54.102Z,-67
2018-03-01T19:53:21.385Z,-66
2018-03-01T19:55:48.439Z,-68
2018-03-01T19:58:15.499Z,-66
2018-03-01T20:00:42.550Z,-66
2018-03-01T20:03:09.599Z,-65
2018-03-01T20:05:36.967Z,-66
2018-03-01T20:08:04.017Z,-65
2018-03-01T20:10:31.067Z,-65
2018-03-01T20:12:58.114Z,-64
2018-03-01T20:15:25.175Z,-65
2018-03-01T20:17:52.457Z,-63
2018-03-01T20:20:19.514Z,-62
2018-03-01T20:22:46.562Z,-63
2018-03-01T20:25:13.622Z,-62
2018-03-01T20:27:40.674Z,-62
2018-03-01T20:30:07.958Z,-63
2018-03-01T20:32:35.003Z,-63
2018-03-01T20:35:02.059Z,-62
2018-03-01T20:37:29.117Z,-62
2018-03-01T20:39:56.163Z,-62
2018-03-01T20:42:23.254Z,-62
2018-03-01T20:44:50.313Z,-62
2018-03-01T20:47:17.362Z,-62
2018-03-01T20:49:44.416Z,-62
2018-03-01T20:52:11.466Z,-62
2018-03-01T20:54:38.762Z,-62
2018-03-01T20:57:05.816Z,-62
2018-03-01T20:59:32.862Z,-63
2018-03-01T21:01:59.918Z,-64
2018-03-01T21:04:26.971Z,-64
2018-03-01T21:06:54.051Z,-63
2018-03-01T21:09:21.112Z,-63
2018-03-01T21:11:48.166Z,-63
2018-03-01T21:14:15.214Z,-63
2018-03-01T21:16:42.262Z,-63
2018-03-01T21:19:09.501Z,-63
2018-03-01T21:21:36.549Z,-64
2018-03-01T21:24:03.607Z,-64
2018-03-01T21:26:30.662Z,-64
2018-03-01T21:28:57.702Z,-69
2018-03-01T21:31:25.105Z,-73
2018-03-01T21:33:52.165Z,-70
2018-03-01T21:36:19.219Z,-74
2018-03-01T21:38:46.280Z,-70
2018-03-01T21:41:13.330Z,-69
2018-03-01T21:43:40.382Z,-67
2018-03-01T21:46:07.435Z,-65
2018-03-01T21:48:34.494Z,-65
2018-03-01T21:51:01.543Z,-64
2018-03-01T21:53:29.066Z,-66
2018-03-01T21:55:56.091Z,-65
2018-03-01T21:58:23.138Z,-65
2018-03-01T22:00:50.409Z,-64
2018-03-01T22:03:17.454Z,-64
2018-03-01T22:05:44.500Z,-64
2018-03-01T22:08:11.752Z,-64
2018-03-01T22:10:38.800Z,-64
2018-03-01T22:13:05.854Z,-63
2018-03-01T22:15:32.926Z,-63
2018-03-01T22:17:59.978Z,-65
2018-03-01T22:20:27.031Z,-65
2018-03-01T22:22:54.100Z,-64
2018-03-01T22:25:21.151Z,-63
2018-03-01T22:27:48.366Z,-62
2018-03-01T22:30:15.533Z,-62
2018-03-01T22:32:42.594Z,-62
2018-03-01T22:35:09.651Z,-64
2018-03-01T22:37:36.698Z,-63
2018-03-01T22:40:03.970Z,-63
2018-03-01T22:42:31.018Z,-63
2018-03-01T22:44:58.067Z,-65
2018-03-01T22:47:25.118Z,-64
2018-03-01T22:49:52.168Z,-66
2018-03-01T22:52:19.470Z,-68
2018-03-01T22:54:46.527Z,-64
2018-03-01T22:57:13.583Z,-63
2018-03-01T22:59:40.635Z,-65
2018-03-01T23:02:07.703Z,-69
2018-03-01T23:04:35.058Z,-67
2018-03-01T23:07:02.107Z,-68
2018-03-01T23:09:29.170Z,-68
2018-03-01T23:11:56.223Z,-69
2018-03-01T23:14:23.278Z,-68
2018-03-01T23:16:50.475Z,-72
2018-03-01T23:19:17.564Z,-72
2018-03-01T23:21:44.610Z,-72
2018-03-01T23:24:11.659Z,-68
2018-03-01T23:26:38.706Z,-69
2018-03-01T23:29:05.795Z,-72
2018-03-01T23:31:32.845Z,-69
2018-03-01T23:33:59.895Z,-72
2018-03-01T23:36:26.941Z,-73
2018-03-01T23:38:53.990Z,-73
2018-03-01T23:41:21.290Z,-73
2018-03-01T23:43:48.343Z,-72
2018-03-01T23:46:15.394Z,-73
2018-03-01T23:48:42.443Z,-69
2018-03-01T23:51:09.500Z,-68
2018-03-01T23:53:36.815Z,-69
2018-03-01T23:56:03.874Z,-69
2018-03-01T23:58:30.922Z,-73
